Austin, Texas
Traffic Map
Current Weather Conditions
Austin, Texas
Overcast
Overcast
26°
Feels Like: 27°
Wind Chill: 26° Ceiling: 1000
Heat Index: 27° Visibility: 9mi
Dew Point: 24° Wind: 6mph
Humidity: 90% Direction: 170° (S)
Pressure: 29.93in Gusts: 0mph
Raw Report DataKATT 011111Z AUTO 17005KT 9SM BKN010 BKN016 OVC025 26/24 A2993 RMK AO2 T02560239
Traffic Incident Summary
Active as of:
Severity:
Category:
InformationThere was an issue retrieving the traffic information for this location. Please try a different location or try again shortly.
Advertisements
Track Severe Weather on mobile